Terminal Aerodrome Forecast
Issued by NWS Atlanta, GA

Home | Current Version | Previous Version | Text Only | Print | Product List | Glossary On
Versions: 1 2 3 4 5 6 7 8 9 10 11 12 13 14 15 16 17 18 19 20 21 22 23 24 25 26 27 28 29 30 31 32 33 34 35 36 37 38 39 40
000
FTUS42 KFFC 231122
TAFAHN
TAF
KAHN 231122Z 2312/2412 27008KT P6SM SCT007 BKN015 OVC025
      TEMPO 2312/2315 BKN006
     FM231800 30016G26KT P6SM BKN025
     FM232100 30016G26KT P6SM BKN030
     FM240000 29014G25KT P6SM BKN025
     FM240400 29012KT P6SM SCT025=

USA.gov is the U.S. government's official web portal to all federal, state and local government web resources and services.